Tyro, Arkansas
Current Conditions -  °F | °C
As of 9:00 AM on Thursday 18 Dec 2014 (Local Time) from KLLQ Reporting Station
Overcast Overcast  
Wind Chill: 39°   Ceiling: 3300
Heat Index: 43°   Visibility: 10mi
Dew Point: 40°   Wind: 6mph
Humidity: 89%   Direction: 100°E
Pressure: 30.22"   Gusts: NA
Location:  33.8021°N, 91.3887°W
Report Text: KLLQ 181500Z AUTO 10005KT 10SM FEW005 OVC033 06/04 A3022 RMK AO2 T00610044
Loading
Personal Weather Stations






























Interactive Weather Map New forecast layout! Learn more

10-Day Weather Forecast

Advertisements
Track Severe Weather on mobile